sensor_id;sensor_type;location;lat;lon;timestamp;P1;durP1;ratioP1;P2;durP2;ratioP2
85243;SDS011;75643;56.928;41.094;2024-02-21T00:01:25;8.13;;;3.95;;
85243;SDS011;75643;56.928;41.094;2024-02-21T00:03:51;8.15;;;4.85;;
85243;SDS011;75643;56.928;41.094;2024-02-21T00:06:17;13.43;;;5.22;;
85243;SDS011;75643;56.928;41.094;2024-02-21T00:08:44;8.68;;;5.25;;
85243;SDS011;75643;56.928;41.094;2024-02-21T00:11:10;7.47;;;3.85;;
85243;SDS011;75643;56.928;41.094;2024-02-21T00:13:36;9.02;;;4.22;;
85243;SDS011;75643;56.928;41.094;2024-02-21T00:16:02;9.02;;;3.72;;
85243;SDS011;75643;56.928;41.094;2024-02-21T00:18:29;10.25;;;4.78;;
85243;SDS011;75643;56.928;41.094;2024-02-21T00:20:55;7.35;;;4.32;;
85243;SDS011;75643;56.928;41.094;2024-02-21T00:23:22;9.00;;;4.43;;
85243;SDS011;75643;56.928;41.094;2024-02-21T00:25:48;8.82;;;4.88;;
85243;SDS011;75643;56.928;41.094;2024-02-21T00:28:14;10.35;;;5.30;;
85243;SDS011;75643;56.928;41.094;2024-02-21T00:30:40;9.30;;;5.03;;
85243;SDS011;75643;56.928;41.094;2024-02-21T00:33:06;7.93;;;5.20;;
85243;SDS011;75643;56.928;41.094;2024-02-21T00:35:32;9.57;;;5.07;;
85243;SDS011;75643;56.928;41.094;2024-02-21T00:37:58;11.13;;;5.13;;
85243;SDS011;75643;56.928;41.094;2024-02-21T00:40:25;10.80;;;5.45;;
85243;SDS011;75643;56.928;41.094;2024-02-21T00:42:51;10.65;;;5.70;;
85243;SDS011;75643;56.928;41.094;2024-02-21T00:45:17;10.82;;;5.68;;
85243;SDS011;75643;56.928;41.094;2024-02-21T00:47:44;7.60;;;4.53;;
85243;SDS011;75643;56.928;41.094;2024-02-21T00:50:10;11.80;;;5.10;;
85243;SDS011;75643;56.928;41.094;2024-02-21T00:52:36;9.57;;;4.40;;
85243;SDS011;75643;56.928;41.094;2024-02-21T00:55:03;10.23;;;4.78;;
85243;SDS011;75643;56.928;41.094;2024-02-21T00:57:30;10.18;;;4.95;;
85243;SDS011;75643;56.928;41.094;2024-02-21T00:59:56;7.63;;;4.95;;
85243;SDS011;75643;56.928;41.094;2024-02-21T01:02:22;9.52;;;5.03;;
85243;SDS011;75643;56.928;41.094;2024-02-21T01:04:48;7.78;;;3.67;;
85243;SDS011;75643;56.928;41.094;2024-02-21T01:07:14;9.98;;;5.07;;
85243;SDS011;75643;56.928;41.094;2024-02-21T01:09:41;10.93;;;5.38;;
85243;SDS011;75643;56.928;41.094;2024-02-21T01:12:07;9.02;;;4.68;;
85243;SDS011;75643;56.928;41.094;2024-02-21T01:14:33;9.65;;;4.93;;
85243;SDS011;75643;56.928;41.094;2024-02-21T01:16:59;12.52;;;5.47;;
85243;SDS011;75643;56.928;41.094;2024-02-21T01:19:26;10.20;;;4.88;;
85243;SDS011;75643;56.928;41.094;2024-02-21T01:21:52;6.57;;;3.63;;
85243;SDS011;75643;56.928;41.094;2024-02-21T01:24:18;8.10;;;4.50;;
85243;SDS011;75643;56.928;41.094;2024-02-21T01:26:45;5.68;;;3.47;;
85243;SDS011;75643;56.928;41.094;2024-02-21T01:29:12;8.73;;;5.00;;
85243;SDS011;75643;56.928;41.094;2024-02-21T01:31:38;9.00;;;4.28;;
85243;SDS011;75643;56.928;41.094;2024-02-21T01:34:04;6.93;;;3.53;;
85243;SDS011;75643;56.928;41.094;2024-02-21T01:36:31;7.85;;;4.43;;
85243;SDS011;75643;56.928;41.094;2024-02-21T01:38:57;8.98;;;4.57;;
85243;SDS011;75643;56.928;41.094;2024-02-21T01:41:23;9.15;;;4.22;;
85243;SDS011;75643;56.928;41.094;2024-02-21T01:43:50;8.88;;;4.05;;
85243;SDS011;75643;56.928;41.094;2024-02-21T01:46:17;8.05;;;3.80;;
85243;SDS011;75643;56.928;41.094;2024-02-21T01:48:44;7.72;;;3.53;;
85243;SDS011;75643;56.928;41.094;2024-02-21T01:51:11;5.93;;;3.13;;
85243;SDS011;75643;56.928;41.094;2024-02-21T01:53:42;9.63;;;4.00;;
85243;SDS011;75643;56.928;41.094;2024-02-21T01:56:09;7.50;;;4.30;;
85243;SDS011;75643;56.928;41.094;2024-02-21T01:58:36;6.47;;;4.07;;
85243;SDS011;75643;56.928;41.094;2024-02-21T02:01:05;7.57;;;3.58;;
85243;SDS011;75643;56.928;41.094;2024-02-21T02:03:32;7.15;;;3.60;;
85243;SDS011;75643;56.928;41.094;2024-02-21T02:05:59;6.20;;;4.00;;
85243;SDS011;75643;56.928;41.094;2024-02-21T02:08:25;4.53;;;3.10;;
85243;SDS011;75643;56.928;41.094;2024-02-21T02:10:52;8.70;;;4.70;;
85243;SDS011;75643;56.928;41.094;2024-02-21T02:13:19;3.78;;;2.45;;
85243;SDS011;75643;56.928;41.094;2024-02-21T02:15:46;8.73;;;4.05;;
85243;SDS011;75643;56.928;41.094;2024-02-21T02:18:14;7.32;;;3.85;;
85243;SDS011;75643;56.928;41.094;2024-02-21T02:20:41;7.97;;;3.83;;
85243;SDS011;75643;56.928;41.094;2024-02-21T02:23:11;5.70;;;3.88;;
85243;SDS011;75643;56.928;41.094;2024-02-21T02:25:47;5.95;;;3.30;;
85243;SDS011;75643;56.928;41.094;2024-02-21T02:28:14;4.85;;;3.17;;
85243;SDS011;75643;56.928;41.094;2024-02-21T02:30:41;5.88;;;3.28;;
85243;SDS011;75643;56.928;41.094;2024-02-21T02:33:09;7.07;;;3.67;;
85243;SDS011;75643;56.928;41.094;2024-02-21T02:35:35;7.22;;;3.47;;
85243;SDS011;75643;56.928;41.094;2024-02-21T02:38:02;6.75;;;4.03;;
85243;SDS011;75643;56.928;41.094;2024-02-21T02:40:30;5.25;;;3.58;;
85243;SDS011;75643;56.928;41.094;2024-02-21T02:42:56;6.70;;;3.30;;
85243;SDS011;75643;56.928;41.094;2024-02-21T02:45:23;5.13;;;2.65;;
85243;SDS011;75643;56.928;41.094;2024-02-21T02:47:52;5.70;;;3.47;;
85243;SDS011;75643;56.928;41.094;2024-02-21T02:50:19;4.75;;;3.08;;
85243;SDS011;75643;56.928;41.094;2024-02-21T02:52:46;6.35;;;3.63;;
85243;SDS011;75643;56.928;41.094;2024-02-21T02:55:12;7.72;;;4.05;;
85243;SDS011;75643;56.928;41.094;2024-02-21T02:57:38;6.80;;;3.00;;
85243;SDS011;75643;56.928;41.094;2024-02-21T03:00:07;8.45;;;4.47;;
85243;SDS011;75643;56.928;41.094;2024-02-21T03:02:37;7.38;;;4.05;;
85243;SDS011;75643;56.928;41.094;2024-02-21T03:05:16;6.13;;;3.47;;
85243;SDS011;75643;56.928;41.094;2024-02-21T03:07:47;9.20;;;3.70;;
85243;SDS011;75643;56.928;41.094;2024-02-21T03:10:15;8.27;;;4.15;;
85243;SDS011;75643;56.928;41.094;2024-02-21T03:12:44;7.57;;;3.95;;
85243;SDS011;75643;56.928;41.094;2024-02-21T03:15:11;5.80;;;3.28;;
85243;SDS011;75643;56.928;41.094;2024-02-21T03:17:38;6.68;;;3.55;;
85243;SDS011;75643;56.928;41.094;2024-02-21T03:20:06;6.88;;;3.75;;
85243;SDS011;75643;56.928;41.094;2024-02-21T03:22:36;5.75;;;3.50;;
85243;SDS011;75643;56.928;41.094;2024-02-21T03:25:03;4.90;;;3.28;;
85243;SDS011;75643;56.928;41.094;2024-02-21T03:27:35;7.03;;;3.17;;
85243;SDS011;75643;56.928;41.094;2024-02-21T03:30:01;7.53;;;3.85;;
85243;SDS011;75643;56.928;41.094;2024-02-21T03:32:29;5.97;;;3.45;;
85243;SDS011;75643;56.928;41.094;2024-02-21T03:34:56;5.82;;;4.28;;
85243;SDS011;75643;56.928;41.094;2024-02-21T03:37:22;7.20;;;3.58;;
85243;SDS011;75643;56.928;41.094;2024-02-21T03:39:50;8.52;;;3.65;;
85243;SDS011;75643;56.928;41.094;2024-02-21T03:42:19;7.40;;;3.95;;
85243;SDS011;75643;56.928;41.094;2024-02-21T03:44:45;5.45;;;3.33;;
85243;SDS011;75643;56.928;41.094;2024-02-21T03:47:11;4.20;;;3.35;;
85243;SDS011;75643;56.928;41.094;2024-02-21T03:49:37;8.07;;;3.40;;
85243;SDS011;75643;56.928;41.094;2024-02-21T03:52:04;5.95;;;3.53;;
85243;SDS011;75643;56.928;41.094;2024-02-21T03:54:30;8.05;;;4.55;;
85243;SDS011;75643;56.928;41.094;2024-02-21T03:56:56;6.93;;;3.50;;
85243;SDS011;75643;56.928;41.094;2024-02-21T03:59:23;6.38;;;3.25;;
85243;SDS011;75643;56.928;41.094;2024-02-21T04:01:52;8.25;;;3.90;;
85243;SDS011;75643;56.928;41.094;2024-02-21T04:04:19;6.88;;;3.85;;
85243;SDS011;75643;56.928;41.094;2024-02-21T04:06:48;7.68;;;4.53;;
85243;SDS011;75643;56.928;41.094;2024-02-21T04:09:15;7.57;;;3.20;;
85243;SDS011;75643;56.928;41.094;2024-02-21T04:11:42;6.25;;;4.05;;
85243;SDS011;75643;56.928;41.094;2024-02-21T04:14:09;6.05;;;3.00;;
85243;SDS011;75643;56.928;41.094;2024-02-21T04:16:37;6.78;;;4.20;;
85243;SDS011;75643;56.928;41.094;2024-02-21T04:19:04;7.53;;;3.55;;
85243;SDS011;75643;56.928;41.094;2024-02-21T04:21:30;5.57;;;3.60;;
85243;SDS011;75643;56.928;41.094;2024-02-21T04:23:57;6.53;;;3.80;;
85243;SDS011;75643;56.928;41.094;2024-02-21T04:26:23;5.82;;;2.85;;
85243;SDS011;75643;56.928;41.094;2024-02-21T04:28:50;7.25;;;3.58;;
85243;SDS011;75643;56.928;41.094;2024-02-21T04:31:16;8.80;;;4.30;;
85243;SDS011;75643;56.928;41.094;2024-02-21T04:33:42;6.72;;;4.03;;
85243;SDS011;75643;56.928;41.094;2024-02-21T04:36:09;7.00;;;4.15;;
85243;SDS011;75643;56.928;41.094;2024-02-21T04:38:35;7.88;;;4.53;;
85243;SDS011;75643;56.928;41.094;2024-02-21T04:41:01;6.18;;;3.58;;
85243;SDS011;75643;56.928;41.094;2024-02-21T04:43:28;7.80;;;4.22;;
85243;SDS011;75643;56.928;41.094;2024-02-21T04:45:54;5.93;;;4.28;;
85243;SDS011;75643;56.928;41.094;2024-02-21T04:48:20;7.57;;;3.65;;
85243;SDS011;75643;56.928;41.094;2024-02-21T04:50:47;7.18;;;3.72;;
85243;SDS011;75643;56.928;41.094;2024-02-21T04:53:13;7.40;;;3.38;;
85243;SDS011;75643;56.928;41.094;2024-02-21T04:55:39;7.28;;;4.28;;
85243;SDS011;75643;56.928;41.094;2024-02-21T04:58:06;6.43;;;3.85;;
85243;SDS011;75643;56.928;41.094;2024-02-21T05:00:33;4.90;;;3.28;;
85243;SDS011;75643;56.928;41.094;2024-02-21T05:02:59;4.45;;;3.13;;
85243;SDS011;75643;56.928;41.094;2024-02-21T05:05:26;5.82;;;3.42;;
85243;SDS011;75643;56.928;41.094;2024-02-21T05:07:52;7.15;;;4.57;;
85243;SDS011;75643;56.928;41.094;2024-02-21T05:10:18;6.75;;;4.10;;
85243;SDS011;75643;56.928;41.094;2024-02-21T05:12:45;4.55;;;3.08;;
85243;SDS011;75643;56.928;41.094;2024-02-21T05:15:11;7.72;;;3.80;;
85243;SDS011;75643;56.928;41.094;2024-02-21T05:17:37;6.63;;;3.60;;
85243;SDS011;75643;56.928;41.094;2024-02-21T05:20:04;8.27;;;4.22;;
85243;SDS011;75643;56.928;41.094;2024-02-21T05:22:31;5.95;;;3.88;;
85243;SDS011;75643;56.928;41.094;2024-02-21T05:24:57;5.78;;;2.83;;
85243;SDS011;75643;56.928;41.094;2024-02-21T05:27:23;5.60;;;2.88;;
85243;SDS011;75643;56.928;41.094;2024-02-21T05:29:50;8.43;;;3.55;;
85243;SDS011;75643;56.928;41.094;2024-02-21T05:32:17;7.97;;;4.10;;
85243;SDS011;75643;56.928;41.094;2024-02-21T05:34:43;7.63;;;4.22;;
85243;SDS011;75643;56.928;41.094;2024-02-21T05:37:09;6.53;;;3.55;;
85243;SDS011;75643;56.928;41.094;2024-02-21T05:39:36;7.70;;;4.32;;
85243;SDS011;75643;56.928;41.094;2024-02-21T05:42:02;6.90;;;3.22;;
85243;SDS011;75643;56.928;41.094;2024-02-21T05:44:28;5.15;;;3.28;;
85243;SDS011;75643;56.928;41.094;2024-02-21T05:46:55;7.05;;;3.50;;
85243;SDS011;75643;56.928;41.094;2024-02-21T05:49:21;6.82;;;2.85;;
85243;SDS011;75643;56.928;41.094;2024-02-21T05:51:49;5.18;;;3.20;;
85243;SDS011;75643;56.928;41.094;2024-02-21T05:54:16;4.28;;;3.45;;
85243;SDS011;75643;56.928;41.094;2024-02-21T05:56:45;3.78;;;2.53;;
85243;SDS011;75643;56.928;41.094;2024-02-21T05:59:13;5.28;;;3.50;;
85243;SDS011;75643;56.928;41.094;2024-02-21T06:01:39;5.28;;;3.28;;
85243;SDS011;75643;56.928;41.094;2024-02-21T06:04:06;4.75;;;3.05;;
85243;SDS011;75643;56.928;41.094;2024-02-21T06:06:34;9.65;;;4.38;;
85243;SDS011;75643;56.928;41.094;2024-02-21T06:09:00;4.97;;;2.80;;
85243;SDS011;75643;56.928;41.094;2024-02-21T06:11:28;5.07;;;2.95;;
85243;SDS011;75643;56.928;41.094;2024-02-21T06:13:55;5.32;;;3.35;;
85243;SDS011;75643;56.928;41.094;2024-02-21T06:16:21;3.47;;;2.38;;
85243;SDS011;75643;56.928;41.094;2024-02-21T06:18:49;4.93;;;2.92;;
85243;SDS011;75643;56.928;41.094;2024-02-21T06:21:15;5.55;;;3.55;;
85243;SDS011;75643;56.928;41.094;2024-02-21T06:23:42;5.35;;;3.45;;
85243;SDS011;75643;56.928;41.094;2024-02-21T06:26:09;4.90;;;2.70;;
85243;SDS011;75643;56.928;41.094;2024-02-21T06:28:36;5.63;;;2.95;;
85243;SDS011;75643;56.928;41.094;2024-02-21T06:31:04;4.72;;;2.63;;
85243;SDS011;75643;56.928;41.094;2024-02-21T06:33:33;4.18;;;2.88;;
85243;SDS011;75643;56.928;41.094;2024-02-21T06:36:00;5.35;;;3.03;;
85243;SDS011;75643;56.928;41.094;2024-02-21T06:38:26;4.63;;;2.95;;
85243;SDS011;75643;56.928;41.094;2024-02-21T06:40:52;3.30;;;2.40;;
85243;SDS011;75643;56.928;41.094;2024-02-21T06:43:20;2.90;;;2.22;;
85243;SDS011;75643;56.928;41.094;2024-02-21T06:45:47;3.55;;;2.05;;
85243;SDS011;75643;56.928;41.094;2024-02-21T06:50:46;6.10;;;3.05;;
85243;SDS011;75643;56.928;41.094;2024-02-21T06:53:13;5.13;;;3.00;;
85243;SDS011;75643;56.928;41.094;2024-02-21T06:55:39;4.38;;;3.28;;
85243;SDS011;75643;56.928;41.094;2024-02-21T06:58:07;3.10;;;2.42;;
85243;SDS011;75643;56.928;41.094;2024-02-21T07:00:38;5.57;;;3.40;;
85243;SDS011;75643;56.928;41.094;2024-02-21T07:03:05;5.40;;;2.63;;
85243;SDS011;75643;56.928;41.094;2024-02-21T07:05:31;3.60;;;2.67;;
85243;SDS011;75643;56.928;41.094;2024-02-21T07:07:57;5.25;;;2.97;;
85243;SDS011;75643;56.928;41.094;2024-02-21T07:10:23;4.13;;;2.60;;
85243;SDS011;75643;56.928;41.094;2024-02-21T07:12:50;3.88;;;2.70;;
85243;SDS011;75643;56.928;41.094;2024-02-21T07:15:18;5.18;;;2.85;;
85243;SDS011;75643;56.928;41.094;2024-02-21T07:17:45;4.95;;;3.00;;
85243;SDS011;75643;56.928;41.094;2024-02-21T07:20:11;4.47;;;2.67;;
85243;SDS011;75643;56.928;41.094;2024-02-21T07:22:37;4.57;;;2.50;;
85243;SDS011;75643;56.928;41.094;2024-02-21T07:25:04;3.60;;;2.28;;
85243;SDS011;75643;56.928;41.094;2024-02-21T07:27:30;5.10;;;3.10;;
85243;SDS011;75643;56.928;41.094;2024-02-21T07:29:59;5.53;;;2.72;;
85243;SDS011;75643;56.928;41.094;2024-02-21T07:32:25;4.38;;;2.83;;
85243;SDS011;75643;56.928;41.094;2024-02-21T07:34:51;5.32;;;2.42;;
85243;SDS011;75643;56.928;41.094;2024-02-21T07:37:17;3.92;;;2.85;;
85243;SDS011;75643;56.928;41.094;2024-02-21T07:39:43;3.03;;;2.65;;
85243;SDS011;75643;56.928;41.094;2024-02-21T07:42:09;3.20;;;2.63;;
85243;SDS011;75643;56.928;41.094;2024-02-21T07:44:36;4.15;;;2.55;;
85243;SDS011;75643;56.928;41.094;2024-02-21T07:47:02;3.90;;;2.20;;
85243;SDS011;75643;56.928;41.094;2024-02-21T07:49:28;3.67;;;2.65;;
85243;SDS011;75643;56.928;41.094;2024-02-21T07:51:56;5.72;;;2.70;;
85243;SDS011;75643;56.928;41.094;2024-02-21T07:54:23;4.38;;;2.70;;
85243;SDS011;75643;56.928;41.094;2024-02-21T07:56:50;4.80;;;2.75;;
85243;SDS011;75643;56.928;41.094;2024-02-21T07:59:16;6.80;;;2.95;;
85243;SDS011;75643;56.928;41.094;2024-02-21T08:01:42;3.60;;;2.78;;
85243;SDS011;75643;56.928;41.094;2024-02-21T08:04:10;2.80;;;2.00;;
85243;SDS011;75643;56.928;41.094;2024-02-21T08:06:36;4.13;;;2.63;;
85243;SDS011;75643;56.928;41.094;2024-02-21T08:09:02;3.80;;;2.63;;
85243;SDS011;75643;56.928;41.094;2024-02-21T08:11:29;3.20;;;1.90;;
85243;SDS011;75643;56.928;41.094;2024-02-21T08:13:56;2.75;;;1.95;;
85243;SDS011;75643;56.928;41.094;2024-02-21T08:16:23;4.28;;;2.88;;
85243;SDS011;75643;56.928;41.094;2024-02-21T08:18:49;3.90;;;2.78;;
85243;SDS011;75643;56.928;41.094;2024-02-21T08:21:17;4.88;;;2.88;;
85243;SDS011;75643;56.928;41.094;2024-02-21T08:23:43;2.63;;;2.13;;
85243;SDS011;75643;56.928;41.094;2024-02-21T08:26:10;4.75;;;3.13;;
85243;SDS011;75643;56.928;41.094;2024-02-21T08:28:39;3.60;;;2.92;;
85243;SDS011;75643;56.928;41.094;2024-02-21T08:31:06;3.92;;;2.60;;
85243;SDS011;75643;56.928;41.094;2024-02-21T08:33:35;3.33;;;2.58;;
85243;SDS011;75643;56.928;41.094;2024-02-21T08:36:01;4.93;;;2.70;;
85243;SDS011;75643;56.928;41.094;2024-02-21T08:38:30;5.28;;;3.67;;
85243;SDS011;75643;56.928;41.094;2024-02-21T08:40:57;3.83;;;2.60;;
85243;SDS011;75643;56.928;41.094;2024-02-21T08:43:23;4.85;;;2.70;;
85243;SDS011;75643;56.928;41.094;2024-02-21T08:45:49;2.67;;;2.17;;
85243;SDS011;75643;56.928;41.094;2024-02-21T08:48:15;6.20;;;3.15;;
85243;SDS011;75643;56.928;41.094;2024-02-21T08:50:41;6.85;;;2.83;;
85243;SDS011;75643;56.928;41.094;2024-02-21T08:53:07;5.55;;;2.63;;
85243;SDS011;75643;56.928;41.094;2024-02-21T08:55:33;4.18;;;2.22;;
85243;SDS011;75643;56.928;41.094;2024-02-21T08:58:01;5.13;;;3.55;;
85243;SDS011;75643;56.928;41.094;2024-02-21T09:00:30;6.07;;;3.30;;
85243;SDS011;75643;56.928;41.094;2024-02-21T09:02:56;4.88;;;3.15;;
85243;SDS011;75643;56.928;41.094;2024-02-21T09:05:22;6.30;;;3.13;;
85243;SDS011;75643;56.928;41.094;2024-02-21T09:07:50;7.05;;;3.38;;
85243;SDS011;75643;56.928;41.094;2024-02-21T09:10:17;6.57;;;3.30;;
85243;SDS011;75643;56.928;41.094;2024-02-21T09:12:44;10.05;;;4.10;;
85243;SDS011;75643;56.928;41.094;2024-02-21T09:15:11;5.65;;;3.22;;
85243;SDS011;75643;56.928;41.094;2024-02-21T09:17:37;7.00;;;4.18;;
85243;SDS011;75643;56.928;41.094;2024-02-21T09:20:05;7.07;;;3.55;;
85243;SDS011;75643;56.928;41.094;2024-02-21T09:22:33;3.92;;;2.50;;
85243;SDS011;75643;56.928;41.094;2024-02-21T09:25:00;3.25;;;2.40;;
85243;SDS011;75643;56.928;41.094;2024-02-21T09:27:29;4.72;;;2.78;;
85243;SDS011;75643;56.928;41.094;2024-02-21T09:29:55;3.83;;;2.60;;
85243;SDS011;75643;56.928;41.094;2024-02-21T09:32:22;5.00;;;2.95;;
85243;SDS011;75643;56.928;41.094;2024-02-21T09:34:50;4.30;;;2.53;;
85243;SDS011;75643;56.928;41.094;2024-02-21T09:37:16;4.45;;;2.42;;
85243;SDS011;75643;56.928;41.094;2024-02-21T09:39:43;8.02;;;3.50;;
85243;SDS011;75643;56.928;41.094;2024-02-21T09:42:10;5.15;;;3.10;;
85243;SDS011;75643;56.928;41.094;2024-02-21T09:44:37;5.53;;;2.92;;
85243;SDS011;75643;56.928;41.094;2024-02-21T09:49:57;4.80;;;2.58;;
85243;SDS011;75643;56.928;41.094;2024-02-21T09:52:23;4.13;;;2.78;;
85243;SDS011;75643;56.928;41.094;2024-02-21T09:54:52;5.70;;;3.38;;
85243;SDS011;75643;56.928;41.094;2024-02-21T09:57:19;5.18;;;2.92;;
85243;SDS011;75643;56.928;41.094;2024-02-21T09:59:46;5.00;;;3.17;;
85243;SDS011;75643;56.928;41.094;2024-02-21T10:02:12;5.43;;;3.30;;
85243;SDS011;75643;56.928;41.094;2024-02-21T10:04:42;4.53;;;3.13;;
85243;SDS011;75643;56.928;41.094;2024-02-21T10:07:08;4.68;;;2.70;;
85243;SDS011;75643;56.928;41.094;2024-02-21T10:09:37;5.28;;;2.80;;
85243;SDS011;75643;56.928;41.094;2024-02-21T10:12:10;6.10;;;3.40;;
85243;SDS011;75643;56.928;41.094;2024-02-21T10:14:38;5.30;;;3.00;;
85243;SDS011;75643;56.928;41.094;2024-02-21T10:17:06;4.15;;;2.97;;
85243;SDS011;75643;56.928;41.094;2024-02-21T10:19:36;7.35;;;2.90;;
85243;SDS011;75643;56.928;41.094;2024-02-21T10:22:07;4.53;;;3.70;;
85243;SDS011;75643;56.928;41.094;2024-02-21T10:24:34;6.28;;;3.10;;
85243;SDS011;75643;56.928;41.094;2024-02-21T10:27:07;3.95;;;2.70;;
85243;SDS011;75643;56.928;41.094;2024-02-21T10:29:35;4.95;;;3.42;;
85243;SDS011;75643;56.928;41.094;2024-02-21T10:32:06;5.45;;;2.70;;
85243;SDS011;75643;56.928;41.094;2024-02-21T10:34:33;3.78;;;2.58;;
85243;SDS011;75643;56.928;41.094;2024-02-21T10:37:01;3.20;;;2.30;;
85243;SDS011;75643;56.928;41.094;2024-02-21T10:39:34;5.15;;;3.15;;
85243;SDS011;75643;56.928;41.094;2024-02-21T10:42:03;4.68;;;2.65;;
85243;SDS011;75643;56.928;41.094;2024-02-21T10:44:31;3.58;;;2.35;;
85243;SDS011;75643;56.928;41.094;2024-02-21T10:46:59;5.15;;;2.80;;
85243;SDS011;75643;56.928;41.094;2024-02-21T10:49:26;4.70;;;2.80;;
85243;SDS011;75643;56.928;41.094;2024-02-21T10:51:55;4.47;;;3.10;;
85243;SDS011;75643;56.928;41.094;2024-02-21T10:57:19;4.88;;;3.10;;
85243;SDS011;75643;56.928;41.094;2024-02-21T10:59:48;3.25;;;2.13;;
85243;SDS011;75643;56.928;41.094;2024-02-21T11:02:15;3.55;;;2.60;;
85243;SDS011;75643;56.928;41.094;2024-02-21T11:04:41;5.03;;;2.80;;
85243;SDS011;75643;56.928;41.094;2024-02-21T11:07:08;3.40;;;2.40;;
85243;SDS011;75643;56.928;41.094;2024-02-21T11:09:35;4.78;;;2.25;;
85243;SDS011;75643;56.928;41.094;2024-02-21T11:12:02;4.60;;;2.55;;
85243;SDS011;75643;56.928;41.094;2024-02-21T11:14:29;4.82;;;2.53;;
85243;SDS011;75643;56.928;41.094;2024-02-21T11:16:58;3.33;;;2.17;;
85243;SDS011;75643;56.928;41.094;2024-02-21T11:19:26;3.75;;;2.33;;
85243;SDS011;75643;56.928;41.094;2024-02-21T11:21:53;4.25;;;2.22;;
85243;SDS011;75643;56.928;41.094;2024-02-21T11:24:33;4.55;;;2.50;;
85243;SDS011;75643;56.928;41.094;2024-02-21T11:27:11;3.65;;;2.47;;
85243;SDS011;75643;56.928;41.094;2024-02-21T11:29:47;4.72;;;3.05;;
85243;SDS011;75643;56.928;41.094;2024-02-21T11:32:14;4.38;;;1.92;;
85243;SDS011;75643;56.928;41.094;2024-02-21T11:34:41;4.15;;;2.80;;
85243;SDS011;75643;56.928;41.094;2024-02-21T11:37:19;5.22;;;2.92;;
85243;SDS011;75643;56.928;41.094;2024-02-21T11:39:45;3.60;;;2.42;;
85243;SDS011;75643;56.928;41.094;2024-02-21T11:42:12;4.85;;;2.75;;
85243;SDS011;75643;56.928;41.094;2024-02-21T11:44:39;4.32;;;2.72;;
85243;SDS011;75643;56.928;41.094;2024-02-21T11:47:06;5.72;;;2.92;;
85243;SDS011;75643;56.928;41.094;2024-02-21T11:49:37;4.05;;;2.42;;
85243;SDS011;75643;56.928;41.094;2024-02-21T11:52:07;4.30;;;2.90;;
85243;SDS011;75643;56.928;41.094;2024-02-21T11:54:33;4.15;;;2.80;;
85243;SDS011;75643;56.928;41.094;2024-02-21T11:57:00;5.57;;;3.22;;
85243;SDS011;75643;56.928;41.094;2024-02-21T11:59:29;4.82;;;3.38;;
85243;SDS011;75643;56.928;41.094;2024-02-21T12:04:24;6.93;;;4.15;;
85243;SDS011;75643;56.928;41.094;2024-02-21T12:06:52;4.97;;;2.85;;
85243;SDS011;75643;56.928;41.094;2024-02-21T12:09:20;3.90;;;2.38;;
85243;SDS011;75643;56.928;41.094;2024-02-21T12:11:56;4.45;;;2.67;;
85243;SDS011;75643;56.928;41.094;2024-02-21T12:14:24;3.63;;;2.42;;
85243;SDS011;75643;56.928;41.094;2024-02-21T12:16:51;6.30;;;3.33;;
85243;SDS011;75643;56.928;41.094;2024-02-21T12:19:17;3.78;;;2.85;;
85243;SDS011;75643;56.928;41.094;2024-02-21T12:21:44;4.20;;;2.53;;
85243;SDS011;75643;56.928;41.094;2024-02-21T12:24:32;4.05;;;2.28;;
85243;SDS011;75643;56.928;41.094;2024-02-21T12:26:57;4.78;;;3.75;;
85243;SDS011;75643;56.928;41.094;2024-02-21T12:29:24;3.75;;;2.70;;
85243;SDS011;75643;56.928;41.094;2024-02-21T12:31:51;4.68;;;2.40;;
85243;SDS011;75643;56.928;41.094;2024-02-21T12:34:17;3.58;;;2.30;;
85243;SDS011;75643;56.928;41.094;2024-02-21T12:36:44;5.60;;;3.45;;
85243;SDS011;75643;56.928;41.094;2024-02-21T12:39:14;4.00;;;2.50;;
85243;SDS011;75643;56.928;41.094;2024-02-21T12:41:42;4.22;;;2.70;;
85243;SDS011;75643;56.928;41.094;2024-02-21T12:44:11;2.95;;;2.38;;
85243;SDS011;75643;56.928;41.094;2024-02-21T12:46:38;2.78;;;2.10;;
85243;SDS011;75643;56.928;41.094;2024-02-21T12:49:06;4.28;;;2.85;;
85243;SDS011;75643;56.928;41.094;2024-02-21T12:51:37;3.50;;;2.60;;
85243;SDS011;75643;56.928;41.094;2024-02-21T12:54:03;4.30;;;2.42;;
85243;SDS011;75643;56.928;41.094;2024-02-21T12:56:29;3.28;;;2.55;;
85243;SDS011;75643;56.928;41.094;2024-02-21T12:58:57;3.83;;;1.88;;
85243;SDS011;75643;56.928;41.094;2024-02-21T13:01:24;5.03;;;2.92;;
85243;SDS011;75643;56.928;41.094;2024-02-21T13:03:52;3.88;;;2.63;;
85243;SDS011;75643;56.928;41.094;2024-02-21T13:06:19;4.25;;;2.40;;
85243;SDS011;75643;56.928;41.094;2024-02-21T13:08:45;3.83;;;3.10;;
85243;SDS011;75643;56.928;41.094;2024-02-21T13:11:12;4.68;;;2.80;;
85243;SDS011;75643;56.928;41.094;2024-02-21T13:13:40;4.22;;;2.70;;
85243;SDS011;75643;56.928;41.094;2024-02-21T13:16:06;3.88;;;2.25;;
85243;SDS011;75643;56.928;41.094;2024-02-21T13:18:34;4.45;;;2.22;;
85243;SDS011;75643;56.928;41.094;2024-02-21T13:21:04;3.65;;;2.53;;
85243;SDS011;75643;56.928;41.094;2024-02-21T13:23:30;4.45;;;2.70;;
85243;SDS011;75643;56.928;41.094;2024-02-21T13:25:57;4.40;;;2.97;;
85243;SDS011;75643;56.928;41.094;2024-02-21T13:28:23;2.75;;;1.95;;
85243;SDS011;75643;56.928;41.094;2024-02-21T13:30:49;4.38;;;2.58;;
85243;SDS011;75643;56.928;41.094;2024-02-21T13:33:15;3.45;;;2.28;;
85243;SDS011;75643;56.928;41.094;2024-02-21T13:35:41;4.35;;;2.67;;
85243;SDS011;75643;56.928;41.094;2024-02-21T13:38:08;3.67;;;2.35;;
85243;SDS011;75643;56.928;41.094;2024-02-21T13:40:35;4.28;;;2.30;;
85243;SDS011;75643;56.928;41.094;2024-02-21T13:43:03;2.63;;;2.08;;
85243;SDS011;75643;56.928;41.094;2024-02-21T13:45:31;4.85;;;2.75;;
85243;SDS011;75643;56.928;41.094;2024-02-21T13:47:57;3.75;;;2.70;;
85243;SDS011;75643;56.928;41.094;2024-02-21T13:50:30;3.70;;;2.35;;
85243;SDS011;75643;56.928;41.094;2024-02-21T13:53:08;2.75;;;2.30;;
85243;SDS011;75643;56.928;41.094;2024-02-21T13:55:36;4.82;;;2.78;;
85243;SDS011;75643;56.928;41.094;2024-02-21T13:58:02;3.83;;;2.50;;
85243;SDS011;75643;56.928;41.094;2024-02-21T14:00:29;3.60;;;2.38;;
85243;SDS011;75643;56.928;41.094;2024-02-21T14:02:55;3.92;;;2.40;;
85243;SDS011;75643;56.928;41.094;2024-02-21T14:05:24;4.35;;;2.60;;
85243;SDS011;75643;56.928;41.094;2024-02-21T14:07:50;5.95;;;3.15;;
85243;SDS011;75643;56.928;41.094;2024-02-21T14:10:17;4.28;;;2.38;;
85243;SDS011;75643;56.928;41.094;2024-02-21T14:12:44;5.20;;;3.25;;
85243;SDS011;75643;56.928;41.094;2024-02-21T14:15:11;4.53;;;2.60;;
85243;SDS011;75643;56.928;41.094;2024-02-21T14:17:39;3.65;;;2.78;;
85243;SDS011;75643;56.928;41.094;2024-02-21T14:20:08;3.88;;;2.50;;
85243;SDS011;75643;56.928;41.094;2024-02-21T14:22:35;3.40;;;2.35;;
85243;SDS011;75643;56.928;41.094;2024-02-21T14:25:03;3.40;;;2.60;;
85243;SDS011;75643;56.928;41.094;2024-02-21T14:27:32;3.67;;;2.53;;
85243;SDS011;75643;56.928;41.094;2024-02-21T14:30:01;4.05;;;2.58;;
85243;SDS011;75643;56.928;41.094;2024-02-21T14:32:30;5.22;;;3.00;;
85243;SDS011;75643;56.928;41.094;2024-02-21T14:34:59;9.20;;;3.60;;
85243;SDS011;75643;56.928;41.094;2024-02-21T14:37:25;6.78;;;3.67;;
85243;SDS011;75643;56.928;41.094;2024-02-21T14:39:51;4.65;;;2.42;;
85243;SDS011;75643;56.928;41.094;2024-02-21T14:42:20;5.47;;;2.92;;
85243;SDS011;75643;56.928;41.094;2024-02-21T14:44:46;6.13;;;2.95;;